Time;durP1;ratioP1;P1;durP2;ratioP2;P2;SDS_P1;SDS_P2;PMS_P1;PMS_P2;Temp;Humidity;BMP_temperature;BMP_pressure;BME280_temperature;BME280_humidity;BME280_pressure;Samples;Min_cycle;Max_cycle;Signal;HPM_P1;HPM_P2
2022/06/15 00:01:33;;;;;;;17.17;9.27;;;18.60;99.90;;;;;;5247266;28;20036;-76
2022/06/15 00:04:04;;;;;;;19.77;10.20;;;18.50;99.90;;;;;;5248247;28;20025;-75
2022/06/15 00:06:40;;;;;;;25.48;11.38;;;19.10;99.90;;;;;;5247227;28;20429;-75
2022/06/15 00:09:11;;;;;;;18.73;9.93;;;19.70;99.90;;;;;;5248611;28;20035;-75
2022/06/15 00:11:44;;;;;;;21.05;8.30;;;19.90;99.90;;;;;;5248680;28;20095;-77
2022/06/15 00:14:21;;;;;;;15.13;7.55;;;20.00;99.90;;;;;;5247099;28;20383;-76
2022/06/15 00:16:52;;;;;;;10.02;6.85;;;20.10;99.90;;;;;;5247096;28;20078;-79
2022/06/15 00:19:23;;;;;;;14.43;7.05;;;19.90;99.90;;;;;;5246979;28;20032;-76
2022/06/15 00:21:54;;;;;;;12.80;6.35;;;20.10;99.90;;;;;;5248380;28;20040;-76
2022/06/15 00:24:25;;;;;;;12.60;6.47;;;20.10;99.90;;;;;;5246625;28;20020;-77
2022/06/15 00:26:56;;;;;;;10.10;5.57;;;20.20;99.90;;;;;;5246893;28;20028;-79
2022/06/15 00:29:26;;;;;;;10.50;5.78;;;20.20;99.90;;;;;;5248260;28;20025;-76
2022/06/15 00:31:57;;;;;;;12.95;6.47;;;20.10;99.90;;;;;;5247868;28;20040;-79
2022/06/15 00:34:28;;;;;;;16.05;7.00;;;20.20;99.90;;;;;;5248184;28;20028;-76
2022/06/15 00:37:01;;;;;;;14.63;7.85;;;20.10;99.90;;;;;;5247805;28;20472;-76
2022/06/15 00:39:32;;;;;;;16.55;7.00;;;20.00;99.90;;;;;;5246816;28;20024;-75
2022/06/15 00:42:04;;;;;;;18.75;8.40;;;20.10;99.90;;;;;;5246909;28;20037;-75
2022/06/15 00:44:37;;;;;;;14.57;8.00;;;20.10;99.90;;;;;;5245980;28;20048;-78
2022/06/15 00:47:12;;;;;;;13.75;7.53;;;20.10;99.90;;;;;;5248149;28;20032;-75
2022/06/15 00:50:01;;;;;;;13.20;6.93;;;20.20;99.90;;;;;;5248197;28;20464;-75
2022/06/15 00:52:45;;;;;;;11.77;5.28;;;20.20;99.90;;;;;;5246800;28;20372;-79
2022/06/15 00:55:22;;;;;;;12.23;5.75;;;20.10;99.90;;;;;;5246323;28;20054;-76
2022/06/15 00:57:54;;;;;;;12.60;5.72;;;20.10;99.90;;;;;;5247701;28;20037;-76
2022/06/15 01:00:26;;;;;;;11.25;6.60;;;20.20;99.90;;;;;;5249723;28;20067;-76
2022/06/15 01:02:57;;;;;;;8.60;4.53;;;20.00;99.90;;;;;;5250598;28;20028;-75
2022/06/15 01:05:52;;;;;;;7.40;4.53;;;20.00;99.90;;;;;;5251957;28;20029;-77
2022/06/15 01:08:43;;;;;;;9.30;4.40;;;20.10;99.90;;;;;;5252029;28;20025;-75
2022/06/15 01:11:24;;;;;;;9.35;4.03;;;20.20;99.90;;;;;;5250494;28;20078;-76
2022/06/15 01:14:28;;;;;;;5.32;3.63;;;20.10;99.90;;;;;;5251939;28;20036;-75
2022/06/15 01:17:08;;;;;;;5.63;3.92;;;20.20;99.90;;;;;;5251709;28;20021;-75
2022/06/15 01:19:45;;;;;;;;;;;20.10;99.90;;;;;;5252137;28;20050;-75
2022/06/15 01:22:49;;;;;;;5.47;3.35;;;20.20;99.90;;;;;;5250193;28;20006;-75
2022/06/15 01:25:39;;;;;;;7.28;4.13;;;20.30;99.90;;;;;;5251683;28;20032;-76
2022/06/15 01:28:49;;;;;;;6.38;3.70;;;20.20;99.90;;;;;;5250201;28;20142;-75
2022/06/15 01:31:41;;;;;;;6.95;3.50;;;20.20;99.90;;;;;;5219412;28;20046;-77
2022/06/15 01:34:32;;;;;;;10.82;3.88;;;20.20;99.90;;;;;;5249962;28;20028;-79
2022/06/15 01:37:16;;;;;;;4.95;3.03;;;20.20;99.90;;;;;;5251319;28;20523;-75
2022/06/15 01:40:02;;;;;;;3.63;3.20;;;20.20;99.90;;;;;;5251136;28;20408;-75
2022/06/15 01:42:58;;;;;;;7.78;3.45;;;20.10;99.90;;;;;;5249842;28;20499;-77
2022/06/15 01:45:32;;;;;;;7.93;4.13;;;20.00;99.90;;;;;;5251020;28;20028;-78
2022/06/15 01:48:07;;;;;;;5.80;3.55;;;20.00;99.90;;;;;;5250930;28;20039;-75
2022/06/15 01:50:56;;;;;;;12.00;3.45;;;20.10;99.90;;;;;;5249792;28;20428;-75
2022/06/15 01:53:38;;;;;;;5.38;3.45;;;20.10;99.90;;;;;;5250576;28;20037;-78
2022/06/15 01:56:15;;;;;;;6.07;3.33;;;20.10;99.90;;;;;;5250914;28;20027;-75
2022/06/15 01:58:53;;;;;;;10.65;3.80;;;20.10;99.90;;;;;;5249322;28;20052;-78
2022/06/15 02:01:48;;;;;;;6.53;3.28;;;20.00;99.90;;;;;;5250672;28;20041;-75
2022/06/15 02:04:24;;;;;;;6.53;3.08;;;20.00;99.90;;;;;;5249527;28;20025;-75
2022/06/15 02:07:09;;;;;;;8.95;3.67;;;20.00;99.90;;;;;;5249290;28;20093;-75
2022/06/15 02:10:00;;;;;;;9.43;3.20;;;20.00;99.90;;;;;;5250527;28;20052;-75
2022/06/15 02:12:44;;;;;;;11.40;3.67;;;20.00;99.90;;;;;;5249989;28;20021;-75
2022/06/15 02:15:19;;;;;;;7.15;3.75;;;20.00;99.90;;;;;;5250429;28;20366;-75
2022/06/15 02:17:50;;;;;;;7.55;3.45;;;20.00;99.90;;;;;;5249206;28;20362;-80
2022/06/15 02:20:28;;;;;;;10.77;3.97;;;20.00;99.90;;;;;;5250287;28;20033;-78
2022/06/15 02:23:03;;;;;;;11.43;3.80;;;19.90;99.90;;;;;;5250298;28;20031;-75
2022/06/15 02:25:41;;;;;;;10.45;3.47;;;19.90;99.90;;;;;;5250476;28;20526;-75
2022/06/15 02:28:12;;;;;;;7.55;3.40;;;19.90;99.90;;;;;;5248769;28;20059;-79
2022/06/15 02:30:44;;;;;;;9.45;3.92;;;19.90;99.90;;;;;;5249045;28;20032;-76
2022/06/15 02:33:38;;;;;;;12.18;4.00;;;19.90;99.90;;;;;;5250115;28;20356;-79
2022/06/15 02:36:09;;;;;;;7.80;3.72;;;19.90;99.90;;;;;;5250345;28;20123;-75
2022/06/15 02:38:42;;;;;;;7.45;3.85;;;20.00;99.90;;;;;;5248961;28;20067;-75
2022/06/15 02:41:13;;;;;;;15.15;3.42;;;19.90;99.90;;;;;;5250272;28;20123;-75
2022/06/15 02:43:46;;;;;;;10.00;3.50;;;19.90;99.90;;;;;;5249896;28;20092;-78
2022/06/15 02:46:18;;;;;;;13.25;4.63;;;19.90;99.90;;;;;;5249151;28;20115;-75
2022/06/15 02:48:50;;;;;;;13.80;4.03;;;19.90;99.90;;;;;;5248399;28;20024;-75
2022/06/15 02:51:31;;;;;;;11.55;4.35;;;19.90;99.90;;;;;;5248347;28;20048;-76
2022/06/15 02:54:10;;;;;;;13.63;4.90;;;20.00;99.90;;;;;;5248470;28;20029;-79
2022/06/15 02:56:42;;;;;;;9.67;3.87;;;20.00;99.90;;;;;;5249252;28;20396;-78
2022/06/15 02:59:13;;;;;;;16.27;5.22;;;19.90;99.90;;;;;;5249016;28;20060;-75
2022/06/15 03:01:44;;;;;;;24.85;4.63;;;19.90;99.90;;;;;;5248328;28;20081;-75
2022/06/15 03:04:15;;;;;;;15.73;5.35;;;20.00;99.90;;;;;;5249320;28;20031;-75
2022/06/15 03:06:45;;;;;;;17.33;5.22;;;20.00;99.90;;;;;;5248145;28;20034;-75
2022/06/15 03:09:16;;;;;;;14.15;4.70;;;20.00;99.90;;;;;;5249271;28;20376;-75
2022/06/15 03:11:47;;;;;;;16.15;5.28;;;20.00;99.90;;;;;;5247849;28;20032;-77
2022/06/15 03:14:18;;;;;;;9.57;4.55;;;20.00;99.90;;;;;;5248062;28;20416;-75
2022/06/15 03:16:49;;;;;;;11.52;3.85;;;19.90;99.90;;;;;;5249712;28;20017;-78
2022/06/15 03:19:20;;;;;;;16.83;4.88;;;20.00;99.90;;;;;;5249172;28;20387;-78
2022/06/15 03:21:51;;;;;;;16.77;5.15;;;20.00;99.90;;;;;;5249666;28;20035;-78
2022/06/15 03:24:22;;;;;;;14.90;4.03;;;20.00;99.90;;;;;;5248784;28;20032;-78
2022/06/15 03:26:52;;;;;;;11.52;3.78;;;20.00;99.90;;;;;;5249083;28;20052;-78
2022/06/15 03:29:24;;;;;;;16.33;3.90;;;20.00;99.90;;;;;;5247682;28;20391;-76
2022/06/15 03:31:54;;;;;;;13.32;3.35;;;20.00;99.90;;;;;;5247638;28;20423;-78
2022/06/15 03:34:25;;;;;;;14.23;3.40;;;19.80;99.90;;;;;;5247270;28;20070;-75
2022/06/15 03:36:56;;;;;;;9.85;3.55;;;19.90;99.90;;;;;;5247620;28;20031;-77
2022/06/15 03:39:27;;;;;;;12.48;3.72;;;19.90;99.90;;;;;;5248960;28;20023;-75
2022/06/15 03:42:15;;;;;;;14.68;4.53;;;19.90;99.90;;;;;;5247116;28;20032;-76
2022/06/15 03:44:46;;;;;;;11.73;3.60;;;19.90;99.90;;;;;;5249025;28;20025;-75
2022/06/15 03:47:17;;;;;;;13.32;3.55;;;19.90;99.90;;;;;;5248724;28;20025;-75
2022/06/15 03:49:50;;;;;;;12.68;3.38;;;19.90;99.90;;;;;;5249179;28;20074;-76
2022/06/15 03:52:25;;;;;;;14.00;3.63;;;19.90;99.90;;;;;;5248542;28;20029;-76
2022/06/15 03:54:55;;;;;;;17.33;3.50;;;19.90;99.90;;;;;;5248598;28;20016;-78
2022/06/15 03:57:26;;;;;;;13.73;3.72;;;20.00;99.90;;;;;;5247115;28;20135;-76
2022/06/15 03:59:57;;;;;;;9.95;3.80;;;20.00;99.90;;;;;;5247186;28;20032;-75
2022/06/15 04:02:28;;;;;;;15.40;3.85;;;20.10;99.90;;;;;;5248451;28;20032;-75
2022/06/15 04:05:00;;;;;;;21.13;5.20;;;20.00;99.90;;;;;;5247168;28;20094;-76
2022/06/15 04:10:20;;;;;;;17.50;4.50;;;20.00;99.90;;;;;;5248747;28;20491;-76
2022/06/15 04:12:51;;;;;;;19.92;4.05;;;19.90;99.90;;;;;;5246757;28;20267;-77
2022/06/15 04:15:22;;;;;;;13.25;3.58;;;19.90;99.90;;;;;;5248196;28;20497;-76
2022/06/15 04:17:53;;;;;;;12.55;3.65;;;19.90;99.90;;;;;;5248027;28;20472;-78
2022/06/15 04:20:32;;;;;;;18.75;3.85;;;19.90;99.90;;;;;;5246608;28;20082;-77
2022/06/15 04:23:09;;;;;;;17.40;4.10;;;20.00;99.90;;;;;;5248412;28;20396;-78
2022/06/15 04:25:51;;;;;;;17.30;4.15;;;19.80;99.90;;;;;;5240943;28;20025;-76
2022/06/15 04:28:22;;;;;;;25.90;4.72;;;20.00;99.90;;;;;;5248407;28;20041;-76
2022/06/15 04:30:53;;;;;;;19.05;4.32;;;19.90;99.90;;;;;;5246982;28;20029;-75
2022/06/15 04:33:24;;;;;;;16.23;4.55;;;19.80;99.90;;;;;;5247931;28;20032;-75
2022/06/15 04:35:56;;;;;;;22.77;5.00;;;19.80;99.90;;;;;;5252520;28;20099;-78
2022/06/15 04:38:26;;;;;;;15.80;3.92;;;19.80;99.90;;;;;;5252468;28;20103;-76
2022/06/15 04:40:57;;;;;;;19.02;3.55;;;19.90;99.90;;;;;;5252200;28;20112;-75
2022/06/15 04:43:28;;;;;;;14.10;3.80;;;19.80;99.90;;;;;;5252265;28;20028;-76
2022/06/15 04:46:00;;;;;;;22.70;4.75;;;19.70;99.90;;;;;;5252225;28;20032;-78
2022/06/15 04:48:31;;;;;;;13.68;3.80;;;19.90;99.90;;;;;;5250939;28;20491;-77
2022/06/15 04:51:20;;;;;;;20.98;3.95;;;19.90;99.90;;;;;;5250965;28;20029;-79
2022/06/15 04:53:53;;;;;;;22.02;4.10;;;19.90;99.90;;;;;;5252076;28;20104;-75
2022/06/15 04:56:25;;;;;;;19.65;4.20;;;19.80;99.90;;;;;;5251707;28;20028;-75
2022/06/15 04:58:56;;;;;;;16.05;3.45;;;19.80;99.90;;;;;;5251585;28;20045;-75
2022/06/15 05:01:27;;;;;;;19.45;4.20;;;19.80;99.90;;;;;;5251983;28;20051;-75
2022/06/15 05:03:57;;;;;;;27.67;4.10;;;19.90;99.90;;;;;;5252123;28;20103;-75
2022/06/15 05:06:37;;;;;;;21.63;4.05;;;19.80;99.90;;;;;;5250614;28;20063;-75
2022/06/15 05:09:12;;;;;;;16.98;3.83;;;20.00;99.90;;;;;;5250623;28;20025;-75
2022/06/15 05:11:43;;;;;;;23.25;3.88;;;19.90;99.90;;;;;;5251767;28;20028;-75
2022/06/15 05:14:14;;;;;;;19.15;3.63;;;19.90;99.90;;;;;;5251637;28;20492;-75
2022/06/15 05:16:45;;;;;;;19.15;4.53;;;19.90;99.90;;;;;;5250548;28;20024;-75
2022/06/15 05:19:16;;;;;;;19.35;4.90;;;20.00;99.90;;;;;;5251343;28;20047;-75
2022/06/15 05:21:46;;;;;;;12.27;3.25;;;20.00;99.90;;;;;;5250340;28;20041;-75
2022/06/15 05:24:17;;;;;;;24.17;4.40;;;20.10;99.90;;;;;;5250264;28;20472;-75
2022/06/15 05:26:48;;;;;;;17.83;4.50;;;20.00;99.90;;;;;;5251353;28;20032;-75
2022/06/15 05:29:19;;;;;;;17.67;3.20;;;20.10;99.90;;;;;;5251495;28;20094;-75
2022/06/15 05:31:49;;;;;;;20.63;4.55;;;20.00;99.90;;;;;;5250986;28;20028;-75
2022/06/15 05:34:21;;;;;;;15.35;3.75;;;19.90;99.90;;;;;;5250065;28;20029;-75
2022/06/15 05:36:51;;;;;;;14.75;3.25;;;19.90;99.90;;;;;;5251228;28;20017;-75
2022/06/15 05:39:22;;;;;;;17.40;3.38;;;19.90;99.90;;;;;;5251643;28;20538;-75
2022/06/15 05:41:53;;;;;;;12.57;3.80;;;20.00;99.90;;;;;;5250894;28;20545;-75
2022/06/15 05:46:59;;;;;;;24.95;4.65;;;20.10;99.90;;;;;;5250407;28;20112;-75
2022/06/15 05:49:31;;;;;;;27.17;4.10;;;20.10;99.90;;;;;;5251097;28;20516;-79
2022/06/15 05:52:02;;;;;;;23.48;3.85;;;20.10;99.90;;;;;;5249389;28;20028;-75
2022/06/15 05:54:32;;;;;;;20.73;4.03;;;20.20;99.90;;;;;;5249784;28;20027;-75
2022/06/15 05:57:20;;;;;;;15.65;4.50;;;20.30;99.90;;;;;;5251002;28;20372;-75
2022/06/15 05:59:53;;;;;;;22.55;4.70;;;20.50;99.90;;;;;;5250930;28;20120;-75
2022/06/15 06:02:26;;;;;;;20.88;3.38;;;20.40;99.90;;;;;;5249320;28;20029;-76
2022/06/15 06:04:57;;;;;;;25.70;4.53;;;20.30;99.90;;;;;;5250054;28;20024;-75
2022/06/15 06:07:28;;;;;;;24.30;3.50;;;20.40;99.90;;;;;;5250421;28;20038;-75
2022/06/15 06:09:58;;;;;;;24.92;4.43;;;20.30;99.90;;;;;;5249532;28;20048;-75
2022/06/15 06:12:29;;;;;;;23.20;4.35;;;20.30;99.90;;;;;;5249504;28;20021;-76
2022/06/15 06:15:00;;;;;;;21.88;4.45;;;20.50;99.90;;;;;;5250424;28;20035;-76
2022/06/15 06:17:31;;;;;;;21.02;4.28;;;20.20;99.90;;;;;;5249205;28;20063;-75
2022/06/15 06:20:02;;;;;;;16.70;3.83;;;20.40;99.90;;;;;;5249035;28;20050;-75
2022/06/15 06:22:33;;;;;;;18.60;4.10;;;20.50;99.90;;;;;;5249145;28;20056;-75
2022/06/15 06:25:04;;;;;;;17.75;4.32;;;20.60;99.90;;;;;;5249095;28;20079;-75
2022/06/15 06:27:35;;;;;;;19.35;4.15;;;20.70;99.90;;;;;;5248522;28;20115;-75
2022/06/15 06:30:06;;;;;;;17.85;4.18;;;20.90;99.90;;;;;;5249035;28;20389;-75
2022/06/15 06:32:37;;;;;;;17.73;4.28;;;20.90;99.90;;;;;;5250475;28;20021;-75
2022/06/15 06:35:08;;;;;;;23.02;4.90;;;20.90;99.90;;;;;;5249095;28;20033;-75
2022/06/15 06:37:40;;;;;;;17.63;4.35;;;20.90;99.90;;;;;;5249632;28;20082;-75
2022/06/15 06:40:15;;;;;;;19.92;4.28;;;21.00;99.90;;;;;;5250339;28;20036;-75
2022/06/15 06:42:46;;;;;;;20.45;4.38;;;21.10;99.90;;;;;;5248664;28;20024;-75
2022/06/15 06:45:17;;;;;;;17.20;3.70;;;21.00;99.90;;;;;;5250014;28;20082;-75
2022/06/15 06:47:48;;;;;;;17.73;3.58;;;21.00;99.90;;;;;;5248796;28;20060;-76
2022/06/15 06:50:19;;;;;;;19.13;4.55;;;21.10;99.90;;;;;;5250244;28;20112;-75
2022/06/15 06:52:50;;;;;;;20.63;3.55;;;21.00;99.90;;;;;;5248426;28;20111;-75
2022/06/15 06:55:22;;;;;;;21.52;4.20;;;20.90;99.90;;;;;;5249673;28;20028;-75
2022/06/15 06:57:54;;;;;;;20.40;3.95;;;21.10;99.90;;;;;;5247882;28;20423;-75
2022/06/15 07:00:26;;;;;;;21.55;4.50;;;21.20;99.90;;;;;;5248281;28;20489;-75
2022/06/15 07:03:01;;;;;;;21.52;4.22;;;21.00;99.90;;;;;;5249964;28;20021;-75
2022/06/15 07:05:36;;;;;;;18.85;4.78;;;21.00;99.90;;;;;;5249543;28;20028;-75
2022/06/15 07:08:12;;;;;;;15.65;4.32;;;21.20;99.90;;;;;;5249388;28;20380;-75
2022/06/15 07:10:43;;;;;;;24.70;5.25;;;21.10;99.90;;;;;;5249455;28;20020;-74
2022/06/15 07:13:14;;;;;;;23.20;3.35;;;21.20;99.90;;;;;;5249361;28;20028;-75
2022/06/15 07:15:44;;;;;;;34.20;5.35;;;21.40;99.90;;;;;;5248279;28;20020;-75
2022/06/15 07:18:15;;;;;;;26.45;4.80;;;21.30;99.90;;;;;;5248063;28;20460;-76
2022/06/15 07:20:46;;;;;;;19.48;4.75;;;21.30;99.90;;;;;;5248924;28;20040;-75
2022/06/15 07:23:17;;;;;;;20.50;4.00;;;21.20;99.90;;;;;;5249346;28;20021;-76
2022/06/15 07:25:47;;;;;;;15.10;3.22;;;20.80;99.90;;;;;;5247997;28;20040;-74
2022/06/15 07:28:18;;;;;;;14.35;3.35;;;20.90;99.90;;;;;;5247776;28;20074;-75
2022/06/15 07:30:49;;;;;;;25.52;3.83;;;21.00;99.90;;;;;;5247951;28;20124;-76
2022/06/15 07:33:20;;;;;;;18.92;3.35;;;20.80;99.90;;;;;;5249052;28;20478;-75
2022/06/15 07:35:51;;;;;;;22.20;4.13;;;20.90;99.90;;;;;;5247687;28;20032;-75
2022/06/15 07:38:22;;;;;;;15.75;4.30;;;20.90;99.90;;;;;;5248870;28;20353;-75
2022/06/15 07:40:53;;;;;;;24.98;5.15;;;20.80;99.90;;;;;;5247132;28;20055;-75
2022/06/15 07:43:25;;;;;;;20.60;5.93;;;20.60;99.90;;;;;;5247542;28;20021;-75
2022/06/15 07:45:55;;;;;;;23.95;6.07;;;20.90;99.90;;;;;;5248737;28;20028;-75
2022/06/15 07:51:38;;;;;;;23.08;5.05;;;20.90;99.90;;;;;;5248943;28;20437;-75
2022/06/15 07:54:10;;;;;;;13.93;3.85;;;21.00;99.90;;;;;;5248904;28;20385;-76
2022/06/15 07:56:42;;;;;;;9.80;2.97;;;21.10;99.90;;;;;;5248556;28;20473;-75
2022/06/15 07:59:14;;;;;;;17.38;3.08;;;20.90;99.90;;;;;;5247055;28;20055;-75
2022/06/15 08:01:45;;;;;;;12.95;3.03;;;21.00;99.90;;;;;;5247083;28;20094;-76
2022/06/15 08:04:16;;;;;;;20.52;3.22;;;21.20;99.90;;;;;;5247105;28;20031;-76
2022/06/15 08:06:48;;;;;;;13.70;3.08;;;21.40;99.90;;;;;;5246763;28;20028;-76
2022/06/15 08:09:19;;;;;;;19.60;3.05;;;21.70;99.90;;;;;;5247613;28;20021;-76
2022/06/15 08:14:46;;;;;;;14.32;2.60;;;21.80;99.90;;;;;;5248724;28;20070;-76
2022/06/15 08:17:23;;;;;;;12.63;2.63;;;21.90;99.90;;;;;;5248389;28;20442;-76
2022/06/15 08:20:19;;;;;;;15.25;2.83;;;22.00;99.90;;;;;;5246987;28;20028;-75
2022/06/15 08:22:54;;;;;;;15.55;3.10;;;22.40;99.90;;;;;;5247839;28;20040;-75
2022/06/15 08:25:31;;;;;;;8.25;2.60;;;22.30;99.90;;;;;;5246981;28;20065;-76
2022/06/15 08:28:03;;;;;;;8.13;2.20;;;22.10;99.90;;;;;;5246539;28;20431;-76
2022/06/15 08:30:36;;;;;;;9.90;2.28;;;22.50;99.90;;;;;;5246389;28;20060;-76
2022/06/15 08:33:09;;;;;;;8.02;2.30;;;22.60;99.90;;;;;;5247151;28;20461;-74
2022/06/15 08:35:40;;;;;;;9.88;2.30;;;23.10;99.90;;;;;;5248300;28;20112;-76
2022/06/15 08:38:15;;;;;;;9.13;2.67;;;23.40;99.90;;;;;;5246870;28;20027;-77
2022/06/15 08:40:52;;;;;;;8.88;2.30;;;23.00;99.90;;;;;;5246788;28;20031;-76
2022/06/15 08:43:28;;;;;;;11.65;1.90;;;22.90;99.90;;;;;;5248159;28;20017;-76
2022/06/15 08:46:39;;;;;;;8.98;2.50;;;23.70;99.90;;;;;;5246830;28;20033;-77
2022/06/15 08:49:22;;;;;;;12.32;2.22;;;23.80;99.90;;;;;;5248039;28;20023;-76
2022/06/15 08:52:05;;;;;;;13.65;2.53;;;23.20;99.90;;;;;;5248390;28;20025;-76
2022/06/15 08:54:43;;;;;;;6.05;2.30;;;22.70;99.90;;;;;;5246443;28;20445;-77
2022/06/15 08:57:40;;;;;;;9.35;1.90;;;22.10;99.90;;;;;;5247790;28;20387;-77
2022/06/15 09:00:18;;;;;;;9.43;2.47;;;22.50;99.90;;;;;;5247498;28;20044;-76
2022/06/15 09:03:02;;;;;;;14.80;3.35;;;22.20;99.90;;;;;;5248013;28;20033;-76
2022/06/15 09:05:44;;;;;;;12.20;2.50;;;22.40;99.90;;;;;;5248067;28;20472;-77
2022/06/15 09:08:18;;;;;;;12.30;2.67;;;22.40;99.90;;;;;;5246619;28;20507;-77
2022/06/15 09:10:58;;;;;;;9.25;2.90;;;22.60;99.90;;;;;;5246648;28;20411;-77
2022/06/15 09:13:38;;;;;;;10.82;2.80;;;22.80;99.90;;;;;;5247964;28;20431;-77
2022/06/15 09:16:18;;;;;;;11.05;3.15;;;23.10;99.90;;;;;;5247887;28;20082;-76
2022/06/15 09:18:51;;;;;;;;;;;23.00;99.90;;;;;;5247026;28;20060;-76
2022/06/15 09:22:04;;;;;;;7.88;2.03;;;23.20;99.90;;;;;;5248973;28;20286;-76
2022/06/15 09:24:47;;;;;;;10.20;2.58;;;22.90;99.90;;;;;;5247220;28;20036;-76
2022/06/15 09:27:26;;;;;;;8.95;2.50;;;22.40;99.90;;;;;;5251595;28;20029;-76
2022/06/15 09:30:03;;;;;;;8.20;1.95;;;23.00;99.90;;;;;;5251412;28;20032;-77
2022/06/15 09:32:40;;;;;;;7.55;2.08;;;22.70;99.90;;;;;;5251449;28;20028;-77
2022/06/15 09:35:16;;;;;;;7.65;2.20;;;22.50;99.90;;;;;;5251516;28;20032;-76
2022/06/15 09:37:52;;;;;;;8.98;3.08;;;23.40;99.90;;;;;;5249954;28;20169;-76
2022/06/15 09:40:34;;;;;;;5.88;1.55;;;23.80;99.90;;;;;;5249982;28;20484;-76
2022/06/15 09:43:16;;;;;;;9.43;2.13;;;23.20;99.90;;;;;;5249939;28;20028;-77
2022/06/15 09:45:50;;;;;;;8.18;2.53;;;23.20;99.90;;;;;;5249472;28;20086;-76
2022/06/15 09:48:32;;;;;;;9.65;2.47;;;23.10;99.90;;;;;;5251042;28;20029;-76
2022/06/15 09:51:14;;;;;;;6.40;2.25;;;23.00;99.90;;;;;;5249272;28;20016;-78
2022/06/15 09:54:12;;;;;;;10.75;2.80;;;23.00;99.90;;;;;;5249828;28;20025;-78
2022/06/15 09:56:43;;;;;;;7.68;2.45;;;22.90;99.90;;;;;;5250877;28;20025;-78
2022/06/15 09:59:18;;;;;;;8.50;2.40;;;23.50;99.90;;;;;;5250807;28;20048;-78
2022/06/15 10:01:49;;;;;;;7.47;2.10;;;23.90;99.90;;;;;;5249549;28;20040;-78
2022/06/15 10:04:27;;;;;;;7.28;2.15;;;24.20;99.90;;;;;;5250753;28;20065;-78
2022/06/15 10:07:07;;;;;;;8.13;2.20;;;24.20;99.90;;;;;;5249533;28;20036;-78
2022/06/15 10:09:41;;;;;;;5.55;1.60;;;24.10;99.90;;;;;;5249439;28;20025;-78
2022/06/15 10:13:04;;;;;;;5.32;1.67;;;23.50;99.90;;;;;;5250611;28;20070;-78
2022/06/15 10:15:41;;;;;;;6.35;1.90;;;23.70;99.90;;;;;;5233145;28;20040;-78
2022/06/15 10:18:27;;;;;;;6.55;2.10;;;24.00;99.90;;;;;;5250827;28;20031;-79
2022/06/15 10:21:21;;;;;;;7.40;1.90;;;23.90;99.90;;;;;;5250454;28;20488;-78
2022/06/15 10:23:59;;;;;;;4.75;1.60;;;24.50;99.90;;;;;;5248791;28;20078;-78
2022/06/15 10:26:51;;;;;;;7.82;2.03;;;23.80;99.90;;;;;;5250488;28;20025;-79
2022/06/15 10:29:30;;;;;;;3.85;1.60;;;24.00;99.90;;;;;;5250309;28;20388;-78
2022/06/15 10:32:09;;;;;;;4.05;1.50;;;24.00;99.90;;;;;;5249701;28;20020;-78
2022/06/15 10:34:46;;;;;;;3.42;1.40;;;23.80;99.90;;;;;;5250304;28;20115;-78
2022/06/15 10:37:43;;;;;;;3.33;1.60;;;24.50;99.90;;;;;;5250144;28;20021;-78
2022/06/15 10:40:23;;;;;;;3.85;2.03;;;24.50;99.90;;;;;;5244283;28;20036;-78
2022/06/15 10:43:07;;;;;;;4.18;1.83;;;24.30;99.90;;;;;;5249954;28;20090;-78
2022/06/15 10:45:56;;;;;;;4.72;1.90;;;24.60;99.90;;;;;;5248636;28;20016;-78
2022/06/15 10:48:57;;;;;;;3.35;1.35;;;24.50;99.90;;;;;;5250117;28;20033;-78
2022/06/15 10:51:35;;;;;;;5.80;1.15;;;24.60;99.90;;;;;;5243565;28;20044;-78
2022/06/15 10:54:21;;;;;;;4.97;1.20;;;24.50;99.90;;;;;;5249758;28;20099;-79
2022/06/15 11:02:39;;;;;;;4.47;1.30;;;24.60;99.90;;;;;;5249793;28;20082;-78
2022/06/15 11:05:09;;;;;;;4.00;1.30;;;25.00;99.90;;;;;;5248204;28;20028;-79
2022/06/15 11:08:04;;;;;;;3.35;1.17;;;25.00;99.90;;;;;;5249675;28;20036;-78
2022/06/15 11:10:36;;;;;;;3.35;1.45;;;25.10;99.90;;;;;;5248218;28;20028;-79
2022/06/15 11:13:40;;;;;;;8.07;1.60;;;25.20;99.90;;;;;;5248059;28;20452;-78
2022/06/15 11:19:29;;;;;;;4.53;1.30;;;25.20;99.90;;;;;;5249586;28;20074;-79
2022/06/15 11:22:06;;;;;;;5.43;1.70;;;25.30;99.90;;;;;;5249086;28;20082;-79
2022/06/15 11:24:45;;;;;;;6.47;1.50;;;24.70;99.90;;;;;;5249384;28;20032;-79
2022/06/15 11:27:41;;;;;;;6.75;1.80;;;25.10;99.90;;;;;;5247751;28;20484;-78
2022/06/15 11:30:30;;;;;;;4.88;1.73;;;24.60;99.90;;;;;;5249132;28;20037;-78
2022/06/15 11:33:43;;;;;;;7.88;1.60;;;25.10;99.90;;;;;;5247788;28;20033;-79
2022/06/15 11:36:25;;;;;;;6.97;1.60;;;24.70;99.90;;;;;;5205657;28;20030;-79
2022/06/15 11:38:59;;;;;;;6.57;1.63;;;25.00;99.90;;;;;;5205476;28;20033;-79
2022/06/15 11:41:32;;;;;;;4.53;1.35;;;24.50;99.90;;;;;;5205394;28;20042;-78
2022/06/15 11:44:13;;;;;;;5.55;1.30;;;24.60;99.90;;;;;;5204257;28;20052;-79
2022/06/15 11:46:59;;;;;;;3.30;1.27;;;24.60;99.90;;;;;;5200522;28;20041;-78
2022/06/15 11:49:44;;;;;;;5.38;1.45;;;24.10;99.90;;;;;;5188665;28;20703;-78
2022/06/15 11:52:21;;;;;;;3.80;1.10;;;24.50;99.90;;;;;;5205483;28;20528;-78
2022/06/15 11:55:08;;;;;;;2.72;0.98;;;24.80;99.90;;;;;;5205509;28;20045;-78
2022/06/15 11:58:13;;;;;;;2.35;0.80;;;24.20;99.90;;;;;;5204693;28;20124;-77
2022/06/15 12:00:47;;;;;;;2.15;0.70;;;24.50;99.90;;;;;;5205547;28;20487;-78
2022/06/15 12:03:48;;;;;;;1.02;0.77;;;25.10;99.90;;;;;;5205129;28;20060;-78
2022/06/15 12:06:34;;;;;;;1.75;0.68;;;24.80;99.90;;;;;;5195610;28;20037;-78
2022/06/15 12:09:43;;;;;;;3.95;0.80;;;24.90;99.90;;;;;;5226455;28;20082;-78
2022/06/15 12:12:38;;;;;;;4.60;1.10;;;24.90;99.90;;;;;;5226396;28;20025;-78
2022/06/15 12:15:38;;;;;;;1.95;1.00;;;25.60;99.90;;;;;;5227811;28;20425;-78
2022/06/15 12:18:12;;;;;;;2.65;1.05;;;25.10;99.90;;;;;;5227654;28;20523;-81
2022/06/15 12:20:55;;;;;;;2.53;1.42;;;25.10;99.90;;;;;;5226316;28;20471;-79
2022/06/15 12:23:35;;;;;;;3.85;1.50;;;25.10;99.90;;;;;;5226338;28;20436;-78
2022/06/15 12:26:39;;;;;;;3.35;1.05;;;24.40;99.90;;;;;;5226470;28;20033;-81
2022/06/15 12:29:39;;;;;;;1.60;0.95;;;24.80;99.90;;;;;;5226323;28;20037;-81
2022/06/15 12:32:34;;;;;;;7.93;2.15;;;24.80;99.90;;;;;;5227580;28;20021;-78
2022/06/15 12:35:40;;;;;;;9.00;2.03;;;24.90;99.90;;;;;;5227769;28;20492;-79
2022/06/15 12:38:36;;;;;;;4.47;1.50;;;24.80;99.90;;;;;;5227485;28;20461;-80
2022/06/15 12:44:14;;;;;;;7.07;1.42;;;25.10;99.90;;;;;;5227611;28;20032;-78
2022/06/15 12:46:53;;;;;;;5.20;1.65;;;25.20;99.90;;;;;;5226092;28;20021;-78
2022/06/15 12:50:09;;;;;;;3.88;1.60;;;24.80;99.90;;;;;;5226138;28;20021;-79
2022/06/15 12:53:03;;;;;;;4.90;1.00;;;25.00;99.90;;;;;;5227317;28;20090;-80
2022/06/15 12:56:09;;;;;;;3.50;1.10;;;24.90;99.90;;;;;;5229077;28;20460;-79
2022/06/15 12:59:06;;;;;;;3.25;1.40;;;25.30;99.90;;;;;;5229762;28;20057;-79
2022/06/15 13:02:03;;;;;;;4.03;1.23;;;24.70;99.90;;;;;;5231212;28;20037;-79
2022/06/15 13:04:53;;;;;;;3.95;1.23;;;25.00;99.90;;;;;;5230067;28;20033;-79
2022/06/15 13:07:28;;;;;;;5.43;1.70;;;24.50;99.90;;;;;;5231215;28;20468;-79
2022/06/15 13:10:08;;;;;;;5.40;1.48;;;24.80;99.90;;;;;;5229560;28;20024;-78
2022/06/15 13:12:47;;;;;;;6.13;1.63;;;24.70;99.90;;;;;;5231172;28;20033;-79
2022/06/15 13:15:40;;;;;;;6.90;1.57;;;24.60;99.90;;;;;;5231059;28;20028;-78
2022/06/15 13:18:12;;;;;;;4.22;1.95;;;24.80;99.90;;;;;;5229894;28;20025;-77
2022/06/15 13:20:46;;;;;;;11.98;1.55;;;24.20;99.90;;;;;;5244479;28;20040;-79
2022/06/15 13:23:27;;;;;;;5.35;1.77;;;24.40;99.90;;;;;;5251598;28;20052;-78
2022/06/15 13:26:05;;;;;;;7.72;1.40;;;25.10;99.90;;;;;;5251729;28;20039;-78
2022/06/15 13:28:44;;;;;;;5.07;1.90;;;25.00;99.90;;;;;;5250126;28;20036;-77
2022/06/15 13:31:55;;;;;;;5.15;1.50;;;24.40;99.90;;;;;;5251559;28;20033;-79
2022/06/15 13:34:36;;;;;;;4.07;1.88;;;24.30;99.90;;;;;;5251349;28;20086;-79
2022/06/15 13:37:28;;;;;;;4.97;1.90;;;24.60;99.90;;;;;;5251329;28;20032;-78
2022/06/15 13:40:09;;;;;;;5.40;1.50;;;25.10;99.90;;;;;;5249390;28;20032;-80
2022/06/15 13:42:45;;;;;;;4.55;1.75;;;24.80;99.90;;;;;;5251146;28;20028;-79
2022/06/15 13:45:22;;;;;;;5.68;1.60;;;24.50;99.90;;;;;;5249690;28;20021;-79
2022/06/15 13:48:01;;;;;;;6.15;1.95;;;24.50;99.90;;;;;;5249779;28;20032;-80
2022/06/15 13:50:35;;;;;;;4.17;2.00;;;24.40;99.90;;;;;;5251203;28;20031;-78
2022/06/15 13:53:25;;;;;;;6.05;1.65;;;24.30;99.90;;;;;;5251095;28;20468;-78
2022/06/15 13:56:25;;;;;;;8.32;1.65;;;24.70;99.90;;;;;;5250991;28;20109;-78
2022/06/15 13:59:20;;;;;;;5.90;2.10;;;24.50;99.90;;;;;;5249482;28;20404;-79
2022/06/15 14:02:05;;;;;;;5.70;1.70;;;24.40;99.90;;;;;;5251094;28;20045;-78